Tallahassee, Florida
Current Conditions -  °F | °C
As of 8:53 PM on Saturday 22 Nov 2014 (Local Time) from KTLH Reporting Station
Heavy Rain Heavy Rain  
Wind Chill: 17°   Ceiling: 1200
Heat Index: 17°   Visibility: 4mi
Dew Point: 15°   Wind: 12mph
Humidity: 87%   Direction: 80°E
Pressure: 30.1"   Gusts: NA
Location:  30.44°N, 84.28°W
Report Text: KTLH 230153Z 08010KT 4SM +RA BR BKN012 OVC028 17/15 A3010 RMK AO2 SLP192 P0033 T01720150 $
Loading
Personal Weather Stations






























Interactive Weather Map New forecast layout! Learn more

10-Day Weather Forecast

Advertisements
Track Severe Weather on mobile